sensor_id;sensor_type;location;lat;lon;timestamp;P1;durP1;ratioP1;P2;durP2;ratioP2
51738;SDS011;37815;52.692;6.226;2022-11-20T00:00:00;19.00;;;10.73;;
51738;SDS011;37815;52.692;6.226;2022-11-20T00:05:00;19.63;;;10.80;;
51738;SDS011;37815;52.692;6.226;2022-11-20T00:10:01;21.17;;;11.85;;
51738;SDS011;37815;52.692;6.226;2022-11-20T00:15:03;21.83;;;11.48;;
51738;SDS011;37815;52.692;6.226;2022-11-20T00:20:04;22.85;;;11.93;;
51738;SDS011;37815;52.692;6.226;2022-11-20T00:25:05;20.42;;;11.13;;
51738;SDS011;37815;52.692;6.226;2022-11-20T00:30:06;20.98;;;10.63;;
51738;SDS011;37815;52.692;6.226;2022-11-20T00:35:07;22.55;;;11.25;;
51738;SDS011;37815;52.692;6.226;2022-11-20T00:40:08;22.45;;;11.27;;
51738;SDS011;37815;52.692;6.226;2022-11-20T00:45:09;21.10;;;10.88;;
51738;SDS011;37815;52.692;6.226;2022-11-20T00:50:10;17.92;;;10.00;;
51738;SDS011;37815;52.692;6.226;2022-11-20T00:55:11;16.75;;;10.00;;
51738;SDS011;37815;52.692;6.226;2022-11-20T01:00:12;18.35;;;9.65;;
51738;SDS011;37815;52.692;6.226;2022-11-20T01:05:12;17.30;;;9.43;;
51738;SDS011;37815;52.692;6.226;2022-11-20T01:10:13;16.25;;;8.18;;
51738;SDS011;37815;52.692;6.226;2022-11-20T01:15:14;15.00;;;8.55;;
51738;SDS011;37815;52.692;6.226;2022-11-20T01:20:14;13.35;;;7.68;;
51738;SDS011;37815;52.692;6.226;2022-11-20T01:25:15;13.30;;;7.80;;
51738;SDS011;37815;52.692;6.226;2022-11-20T01:30:16;13.52;;;7.97;;
51738;SDS011;37815;52.692;6.226;2022-11-20T01:35:17;14.80;;;7.95;;
51738;SDS011;37815;52.692;6.226;2022-11-20T01:40:17;13.63;;;7.15;;
51738;SDS011;37815;52.692;6.226;2022-11-20T01:50:56;12.77;;;7.15;;
51738;SDS011;37815;52.692;6.226;2022-11-20T01:55:58;13.68;;;7.50;;
51738;SDS011;37815;52.692;6.226;2022-11-20T02:01:02;13.68;;;7.32;;
51738;SDS011;37815;52.692;6.226;2022-11-20T02:06:12;11.77;;;6.78;;
51738;SDS011;37815;52.692;6.226;2022-11-20T02:11:18;14.13;;;7.07;;
51738;SDS011;37815;52.692;6.226;2022-11-20T02:16:23;13.48;;;7.32;;
51738;SDS011;37815;52.692;6.226;2022-11-20T02:21:37;12.70;;;6.38;;
51738;SDS011;37815;52.692;6.226;2022-11-20T02:31:49;10.32;;;5.97;;
51738;SDS011;37815;52.692;6.226;2022-11-20T02:36:51;12.70;;;6.38;;
51738;SDS011;37815;52.692;6.226;2022-11-20T02:41:53;12.07;;;6.93;;
51738;SDS011;37815;52.692;6.226;2022-11-20T02:46:56;12.18;;;6.88;;
51738;SDS011;37815;52.692;6.226;2022-11-20T02:51:58;13.27;;;7.13;;
51738;SDS011;37815;52.692;6.226;2022-11-20T02:56:59;13.00;;;6.60;;
51738;SDS011;37815;52.692;6.226;2022-11-20T03:02:00;11.48;;;6.50;;
51738;SDS011;37815;52.692;6.226;2022-11-20T03:07:01;13.30;;;6.40;;
51738;SDS011;37815;52.692;6.226;2022-11-20T03:12:02;11.70;;;5.93;;
51738;SDS011;37815;52.692;6.226;2022-11-20T03:17:03;12.15;;;6.22;;
51738;SDS011;37815;52.692;6.226;2022-11-20T03:22:04;11.32;;;6.15;;
51738;SDS011;37815;52.692;6.226;2022-11-20T03:27:05;13.52;;;5.90;;
51738;SDS011;37815;52.692;6.226;2022-11-20T03:32:05;12.02;;;6.40;;
51738;SDS011;37815;52.692;6.226;2022-11-20T03:37:06;12.43;;;6.30;;
51738;SDS011;37815;52.692;6.226;2022-11-20T03:42:07;11.00;;;6.35;;
51738;SDS011;37815;52.692;6.226;2022-11-20T03:47:29;11.27;;;6.07;;
51738;SDS011;37815;52.692;6.226;2022-11-20T03:52:29;9.27;;;6.00;;
51738;SDS011;37815;52.692;6.226;2022-11-20T03:57:30;13.13;;;6.28;;
51738;SDS011;37815;52.692;6.226;2022-11-20T04:02:31;12.73;;;6.50;;
51738;SDS011;37815;52.692;6.226;2022-11-20T04:07:33;12.20;;;6.50;;
51738;SDS011;37815;52.692;6.226;2022-11-20T04:12:34;12.57;;;6.00;;
51738;SDS011;37815;52.692;6.226;2022-11-20T04:17:35;12.38;;;6.00;;
51738;SDS011;37815;52.692;6.226;2022-11-20T04:22:36;10.65;;;5.90;;
51738;SDS011;37815;52.692;6.226;2022-11-20T04:27:36;10.00;;;5.78;;
51738;SDS011;37815;52.692;6.226;2022-11-20T04:32:37;11.13;;;5.68;;
51738;SDS011;37815;52.692;6.226;2022-11-20T04:37:38;9.90;;;5.57;;
51738;SDS011;37815;52.692;6.226;2022-11-20T04:42:38;12.38;;;6.18;;
51738;SDS011;37815;52.692;6.226;2022-11-20T04:47:39;10.27;;;6.40;;
51738;SDS011;37815;52.692;6.226;2022-11-20T04:52:40;10.65;;;5.72;;
51738;SDS011;37815;52.692;6.226;2022-11-20T04:57:40;9.93;;;5.40;;
51738;SDS011;37815;52.692;6.226;2022-11-20T05:02:41;11.25;;;5.97;;
51738;SDS011;37815;52.692;6.226;2022-11-20T05:07:42;10.35;;;5.38;;
51738;SDS011;37815;52.692;6.226;2022-11-20T05:12:42;12.15;;;6.05;;
51738;SDS011;37815;52.692;6.226;2022-11-20T05:17:49;10.40;;;5.47;;
51738;SDS011;37815;52.692;6.226;2022-11-20T05:22:51;11.75;;;5.90;;
51738;SDS011;37815;52.692;6.226;2022-11-20T05:27:52;12.80;;;6.55;;
51738;SDS011;37815;52.692;6.226;2022-11-20T05:32:53;9.88;;;5.72;;
51738;SDS011;37815;52.692;6.226;2022-11-20T05:37:54;8.73;;;5.18;;
51738;SDS011;37815;52.692;6.226;2022-11-20T05:42:54;10.85;;;5.85;;
51738;SDS011;37815;52.692;6.226;2022-11-20T05:47:58;9.82;;;5.10;;
51738;SDS011;37815;52.692;6.226;2022-11-20T05:53:02;10.48;;;5.43;;
51738;SDS011;37815;52.692;6.226;2022-11-20T05:58:03;9.68;;;5.38;;
51738;SDS011;37815;52.692;6.226;2022-11-20T06:03:04;13.02;;;5.93;;
51738;SDS011;37815;52.692;6.226;2022-11-20T06:08:04;9.20;;;5.60;;
51738;SDS011;37815;52.692;6.226;2022-11-20T06:13:05;10.82;;;5.55;;
51738;SDS011;37815;52.692;6.226;2022-11-20T06:18:06;9.30;;;5.38;;
51738;SDS011;37815;52.692;6.226;2022-11-20T06:23:06;9.52;;;5.75;;
51738;SDS011;37815;52.692;6.226;2022-11-20T06:28:08;9.98;;;5.35;;
51738;SDS011;37815;52.692;6.226;2022-11-20T06:33:09;10.57;;;5.68;;
51738;SDS011;37815;52.692;6.226;2022-11-20T06:38:09;11.82;;;5.95;;
51738;SDS011;37815;52.692;6.226;2022-11-20T06:43:10;12.15;;;6.05;;
51738;SDS011;37815;52.692;6.226;2022-11-20T06:48:11;10.60;;;5.90;;
51738;SDS011;37815;52.692;6.226;2022-11-20T06:53:12;11.75;;;5.85;;
51738;SDS011;37815;52.692;6.226;2022-11-20T06:58:13;9.88;;;5.75;;
51738;SDS011;37815;52.692;6.226;2022-11-20T07:03:15;11.60;;;6.53;;
51738;SDS011;37815;52.692;6.226;2022-11-20T07:08:15;12.57;;;6.25;;
51738;SDS011;37815;52.692;6.226;2022-11-20T07:13:16;10.55;;;5.72;;
51738;SDS011;37815;52.692;6.226;2022-11-20T07:18:17;13.50;;;5.93;;
51738;SDS011;37815;52.692;6.226;2022-11-20T07:23:17;12.30;;;6.07;;
51738;SDS011;37815;52.692;6.226;2022-11-20T07:28:18;12.15;;;6.30;;
51738;SDS011;37815;52.692;6.226;2022-11-20T07:33:19;12.63;;;6.63;;
51738;SDS011;37815;52.692;6.226;2022-11-20T07:38:20;13.70;;;6.35;;
51738;SDS011;37815;52.692;6.226;2022-11-20T07:43:21;11.02;;;6.18;;
51738;SDS011;37815;52.692;6.226;2022-11-20T07:48:22;12.57;;;6.03;;
51738;SDS011;37815;52.692;6.226;2022-11-20T07:53:23;11.25;;;6.50;;
51738;SDS011;37815;52.692;6.226;2022-11-20T07:58:24;12.95;;;6.25;;
51738;SDS011;37815;52.692;6.226;2022-11-20T08:03:24;11.70;;;6.20;;
51738;SDS011;37815;52.692;6.226;2022-11-20T08:08:25;13.18;;;6.57;;
51738;SDS011;37815;52.692;6.226;2022-11-20T08:13:26;12.07;;;6.10;;
51738;SDS011;37815;52.692;6.226;2022-11-20T08:23:46;12.60;;;6.22;;
51738;SDS011;37815;52.692;6.226;2022-11-20T08:28:46;14.13;;;6.53;;
51738;SDS011;37815;52.692;6.226;2022-11-20T08:33:47;13.82;;;7.10;;
51738;SDS011;37815;52.692;6.226;2022-11-20T08:38:49;12.18;;;6.28;;
51738;SDS011;37815;52.692;6.226;2022-11-20T08:48:59;13.73;;;6.97;;
51738;SDS011;37815;52.692;6.226;2022-11-20T08:54:00;14.57;;;6.65;;
51738;SDS011;37815;52.692;6.226;2022-11-20T08:59:01;13.35;;;6.82;;
51738;SDS011;37815;52.692;6.226;2022-11-20T09:04:02;12.32;;;6.60;;
51738;SDS011;37815;52.692;6.226;2022-11-20T09:09:04;14.07;;;6.50;;
51738;SDS011;37815;52.692;6.226;2022-11-20T09:14:05;14.95;;;6.95;;
51738;SDS011;37815;52.692;6.226;2022-11-20T09:19:06;13.50;;;7.10;;
51738;SDS011;37815;52.692;6.226;2022-11-20T09:24:07;13.27;;;6.70;;
51738;SDS011;37815;52.692;6.226;2022-11-20T09:29:08;14.77;;;7.45;;
51738;SDS011;37815;52.692;6.226;2022-11-20T09:34:08;12.68;;;6.45;;
51738;SDS011;37815;52.692;6.226;2022-11-20T09:39:09;11.55;;;6.68;;
51738;SDS011;37815;52.692;6.226;2022-11-20T09:49:34;13.00;;;6.70;;
51738;SDS011;37815;52.692;6.226;2022-11-20T09:54:53;14.38;;;7.10;;
51738;SDS011;37815;52.692;6.226;2022-11-20T09:59:56;16.35;;;7.13;;
51738;SDS011;37815;52.692;6.226;2022-11-20T10:05:02;11.77;;;6.15;;
51738;SDS011;37815;52.692;6.226;2022-11-20T10:10:21;12.32;;;6.70;;
51738;SDS011;37815;52.692;6.226;2022-11-20T10:20:49;12.75;;;6.15;;
51738;SDS011;37815;52.692;6.226;2022-11-20T10:36:33;12.23;;;5.97;;
51738;SDS011;37815;52.692;6.226;2022-11-20T10:41:40;11.82;;;5.75;;
51738;SDS011;37815;52.692;6.226;2022-11-20T10:46:45;12.57;;;6.82;;
51738;SDS011;37815;52.692;6.226;2022-11-20T10:51:59;12.63;;;6.35;;
51738;SDS011;37815;52.692;6.226;2022-11-20T11:02:53;12.77;;;6.65;;
51738;SDS011;37815;52.692;6.226;2022-11-20T11:07:55;19.42;;;6.78;;
51738;SDS011;37815;52.692;6.226;2022-11-20T11:12:57;14.10;;;6.72;;
51738;SDS011;37815;52.692;6.226;2022-11-20T11:17:58;14.50;;;6.57;;
51738;SDS011;37815;52.692;6.226;2022-11-20T11:22:59;16.30;;;6.78;;
51738;SDS011;37815;52.692;6.226;2022-11-20T11:28:02;13.48;;;6.75;;
51738;SDS011;37815;52.692;6.226;2022-11-20T11:33:20;13.73;;;6.73;;
51738;SDS011;37815;52.692;6.226;2022-11-20T11:38:36;12.15;;;6.38;;
51738;SDS011;37815;52.692;6.226;2022-11-20T11:43:50;11.30;;;6.45;;
51738;SDS011;37815;52.692;6.226;2022-11-20T11:49:15;12.13;;;6.22;;
51738;SDS011;37815;52.692;6.226;2022-11-20T11:54:24;13.05;;;6.38;;
51738;SDS011;37815;52.692;6.226;2022-11-20T11:59:38;15.80;;;6.93;;
51738;SDS011;37815;52.692;6.226;2022-11-20T12:10:19;10.75;;;5.68;;
51738;SDS011;37815;52.692;6.226;2022-11-20T12:15:44;12.93;;;6.82;;
51738;SDS011;37815;52.692;6.226;2022-11-20T12:26:00;12.80;;;6.20;;
51738;SDS011;37815;52.692;6.226;2022-11-20T12:41:57;12.45;;;6.38;;
51738;SDS011;37815;52.692;6.226;2022-11-20T12:52:47;12.77;;;5.75;;
51738;SDS011;37815;52.692;6.226;2022-11-20T13:03:47;12.35;;;6.35;;
51738;SDS011;37815;52.692;6.226;2022-11-20T13:08:56;11.00;;;6.25;;
51738;SDS011;37815;52.692;6.226;2022-11-20T13:19:19;10.98;;;6.47;;
51738;SDS011;37815;52.692;6.226;2022-11-20T13:29:23;10.18;;;6.25;;
51738;SDS011;37815;52.692;6.226;2022-11-20T13:34:24;9.07;;;5.63;;
51738;SDS011;37815;52.692;6.226;2022-11-20T13:39:27;13.88;;;6.03;;
51738;SDS011;37815;52.692;6.226;2022-11-20T13:49:57;11.98;;;5.95;;
51738;SDS011;37815;52.692;6.226;2022-11-20T14:00:22;11.40;;;6.57;;
51738;SDS011;37815;52.692;6.226;2022-11-20T14:05:24;10.88;;;5.78;;
51738;SDS011;37815;52.692;6.226;2022-11-20T14:10:26;9.93;;;5.40;;
51738;SDS011;37815;52.692;6.226;2022-11-20T14:15:33;11.95;;;5.68;;
51738;SDS011;37815;52.692;6.226;2022-11-20T14:20:34;12.93;;;6.47;;
51738;SDS011;37815;52.692;6.226;2022-11-20T14:25:35;11.23;;;6.05;;
51738;SDS011;37815;52.692;6.226;2022-11-20T14:30:38;11.63;;;6.05;;
51738;SDS011;37815;52.692;6.226;2022-11-20T14:35:47;11.60;;;6.40;;
51738;SDS011;37815;52.692;6.226;2022-11-20T14:40:50;13.27;;;6.43;;
51738;SDS011;37815;52.692;6.226;2022-11-20T14:46:02;11.35;;;5.70;;
51738;SDS011;37815;52.692;6.226;2022-11-20T14:51:10;10.75;;;5.85;;
51738;SDS011;37815;52.692;6.226;2022-11-20T14:56:12;13.15;;;6.85;;
51738;SDS011;37815;52.692;6.226;2022-11-20T15:01:28;11.73;;;6.10;;
51738;SDS011;37815;52.692;6.226;2022-11-20T15:06:30;13.77;;;6.97;;
51738;SDS011;37815;52.692;6.226;2022-11-20T15:11:32;10.43;;;5.97;;
51738;SDS011;37815;52.692;6.226;2022-11-20T15:16:35;12.88;;;6.78;;
51738;SDS011;37815;52.692;6.226;2022-11-20T15:21:36;11.98;;;6.47;;
51738;SDS011;37815;52.692;6.226;2022-11-20T15:26:36;11.18;;;6.30;;
51738;SDS011;37815;52.692;6.226;2022-11-20T15:31:40;12.73;;;6.20;;
51738;SDS011;37815;52.692;6.226;2022-11-20T15:36:43;14.43;;;6.30;;
51738;SDS011;37815;52.692;6.226;2022-11-20T15:41:44;11.48;;;5.65;;
51738;SDS011;37815;52.692;6.226;2022-11-20T15:46:44;16.60;;;7.97;;
51738;SDS011;37815;52.692;6.226;2022-11-20T15:51:47;12.95;;;6.70;;
51738;SDS011;37815;52.692;6.226;2022-11-20T15:56:49;14.23;;;7.82;;
51738;SDS011;37815;52.692;6.226;2022-11-20T16:01:52;14.15;;;7.30;;
51738;SDS011;37815;52.692;6.226;2022-11-20T16:06:52;12.98;;;7.07;;
51738;SDS011;37815;52.692;6.226;2022-11-20T16:11:53;13.30;;;7.10;;
51738;SDS011;37815;52.692;6.226;2022-11-20T16:16:54;10.80;;;6.63;;
51738;SDS011;37815;52.692;6.226;2022-11-20T16:21:57;12.75;;;6.93;;
51738;SDS011;37815;52.692;6.226;2022-11-20T16:26:58;14.20;;;7.45;;
51738;SDS011;37815;52.692;6.226;2022-11-20T16:31:58;12.55;;;6.82;;
51738;SDS011;37815;52.692;6.226;2022-11-20T16:36:59;14.32;;;7.80;;
51738;SDS011;37815;52.692;6.226;2022-11-20T16:42:02;12.93;;;7.03;;
51738;SDS011;37815;52.692;6.226;2022-11-20T16:47:03;15.50;;;7.25;;
51738;SDS011;37815;52.692;6.226;2022-11-20T16:52:09;15.13;;;7.25;;
51738;SDS011;37815;52.692;6.226;2022-11-20T16:57:10;11.20;;;6.55;;
51738;SDS011;37815;52.692;6.226;2022-11-20T17:02:11;15.80;;;8.75;;
51738;SDS011;37815;52.692;6.226;2022-11-20T17:07:11;15.00;;;7.88;;
51738;SDS011;37815;52.692;6.226;2022-11-20T17:12:12;16.45;;;8.65;;
51738;SDS011;37815;52.692;6.226;2022-11-20T17:17:13;16.55;;;8.18;;
51738;SDS011;37815;52.692;6.226;2022-11-20T17:22:13;16.30;;;8.95;;
51738;SDS011;37815;52.692;6.226;2022-11-20T17:27:14;14.98;;;8.18;;
51738;SDS011;37815;52.692;6.226;2022-11-20T17:32:15;14.43;;;7.72;;
51738;SDS011;37815;52.692;6.226;2022-11-20T17:37:15;15.68;;;8.18;;
51738;SDS011;37815;52.692;6.226;2022-11-20T17:42:16;17.23;;;7.22;;
51738;SDS011;37815;52.692;6.226;2022-11-20T17:47:26;15.77;;;7.50;;
51738;SDS011;37815;52.692;6.226;2022-11-20T17:52:27;15.23;;;7.72;;
51738;SDS011;37815;52.692;6.226;2022-11-20T17:57:27;14.98;;;7.13;;
51738;SDS011;37815;52.692;6.226;2022-11-20T18:02:47;15.80;;;7.40;;
51738;SDS011;37815;52.692;6.226;2022-11-20T18:07:50;15.35;;;7.07;;
51738;SDS011;37815;52.692;6.226;2022-11-20T18:12:52;15.95;;;7.45;;
51738;SDS011;37815;52.692;6.226;2022-11-20T18:17:53;13.73;;;7.32;;
51738;SDS011;37815;52.692;6.226;2022-11-20T18:22:54;16.83;;;7.90;;
51738;SDS011;37815;52.692;6.226;2022-11-20T18:27:55;15.55;;;7.40;;
51738;SDS011;37815;52.692;6.226;2022-11-20T18:32:56;14.45;;;7.22;;
51738;SDS011;37815;52.692;6.226;2022-11-20T18:37:56;14.30;;;7.13;;
51738;SDS011;37815;52.692;6.226;2022-11-20T18:42:57;15.25;;;7.55;;
51738;SDS011;37815;52.692;6.226;2022-11-20T18:48:17;17.20;;;7.93;;
51738;SDS011;37815;52.692;6.226;2022-11-20T18:53:17;15.32;;;8.05;;
51738;SDS011;37815;52.692;6.226;2022-11-20T18:58:18;22.10;;;8.70;;
51738;SDS011;37815;52.692;6.226;2022-11-20T19:03:18;16.45;;;8.65;;
51738;SDS011;37815;52.692;6.226;2022-11-20T19:08:19;19.15;;;7.85;;
51738;SDS011;37815;52.692;6.226;2022-11-20T19:13:20;20.95;;;8.15;;
51738;SDS011;37815;52.692;6.226;2022-11-20T19:18:20;16.63;;;8.00;;
51738;SDS011;37815;52.692;6.226;2022-11-20T19:23:21;18.10;;;8.40;;
51738;SDS011;37815;52.692;6.226;2022-11-20T19:28:22;17.95;;;8.27;;
51738;SDS011;37815;52.692;6.226;2022-11-20T19:33:23;13.02;;;7.05;;
51738;SDS011;37815;52.692;6.226;2022-11-20T19:38:24;17.58;;;8.07;;
51738;SDS011;37815;52.692;6.226;2022-11-20T19:43:25;18.23;;;8.90;;
51738;SDS011;37815;52.692;6.226;2022-11-20T19:48:25;13.30;;;7.93;;
51738;SDS011;37815;52.692;6.226;2022-11-20T19:53:29;19.88;;;8.48;;
51738;SDS011;37815;52.692;6.226;2022-11-20T19:58:30;17.55;;;8.57;;
51738;SDS011;37815;52.692;6.226;2022-11-20T20:03:31;16.58;;;7.78;;
51738;SDS011;37815;52.692;6.226;2022-11-20T20:08:31;17.85;;;8.32;;
51738;SDS011;37815;52.692;6.226;2022-11-20T20:13:32;13.88;;;7.82;;
51738;SDS011;37815;52.692;6.226;2022-11-20T20:18:33;18.40;;;8.73;;
51738;SDS011;37815;52.692;6.226;2022-11-20T20:23:34;15.52;;;7.63;;
51738;SDS011;37815;52.692;6.226;2022-11-20T20:28:35;17.10;;;8.55;;
51738;SDS011;37815;52.692;6.226;2022-11-20T20:33:36;16.95;;;8.38;;
51738;SDS011;37815;52.692;6.226;2022-11-20T20:38:39;18.85;;;8.40;;
51738;SDS011;37815;52.692;6.226;2022-11-20T20:43:40;15.95;;;8.25;;
51738;SDS011;37815;52.692;6.226;2022-11-20T20:48:59;16.55;;;8.48;;
51738;SDS011;37815;52.692;6.226;2022-11-20T20:54:00;17.85;;;8.70;;
51738;SDS011;37815;52.692;6.226;2022-11-20T20:59:02;15.30;;;7.85;;
51738;SDS011;37815;52.692;6.226;2022-11-20T21:04:03;18.67;;;8.07;;
51738;SDS011;37815;52.692;6.226;2022-11-20T21:09:04;15.77;;;8.57;;
51738;SDS011;37815;52.692;6.226;2022-11-20T21:14:04;18.55;;;8.32;;
51738;SDS011;37815;52.692;6.226;2022-11-20T21:19:06;21.48;;;8.73;;
51738;SDS011;37815;52.692;6.226;2022-11-20T21:24:06;17.27;;;8.02;;
51738;SDS011;37815;52.692;6.226;2022-11-20T21:29:07;17.60;;;8.48;;
51738;SDS011;37815;52.692;6.226;2022-11-20T21:34:10;15.65;;;8.15;;
51738;SDS011;37815;52.692;6.226;2022-11-20T21:39:12;20.38;;;8.80;;
51738;SDS011;37815;52.692;6.226;2022-11-20T21:44:13;19.05;;;9.20;;
51738;SDS011;37815;52.692;6.226;2022-11-20T21:49:14;18.13;;;8.90;;
51738;SDS011;37815;52.692;6.226;2022-11-20T21:54:17;19.08;;;9.52;;
51738;SDS011;37815;52.692;6.226;2022-11-20T21:59:17;19.77;;;9.10;;
51738;SDS011;37815;52.692;6.226;2022-11-20T22:04:18;16.80;;;8.13;;
51738;SDS011;37815;52.692;6.226;2022-11-20T22:09:20;22.33;;;10.20;;
51738;SDS011;37815;52.692;6.226;2022-11-20T22:14:21;18.73;;;8.55;;
51738;SDS011;37815;52.692;6.226;2022-11-20T22:19:22;19.20;;;9.23;;
51738;SDS011;37815;52.692;6.226;2022-11-20T22:24:23;18.77;;;10.00;;
51738;SDS011;37815;52.692;6.226;2022-11-20T22:29:25;18.30;;;8.35;;
51738;SDS011;37815;52.692;6.226;2022-11-20T22:34:25;23.77;;;9.95;;
51738;SDS011;37815;52.692;6.226;2022-11-20T22:39:26;23.52;;;9.57;;
51738;SDS011;37815;52.692;6.226;2022-11-20T22:44:27;17.25;;;8.50;;
51738;SDS011;37815;52.692;6.226;2022-11-20T22:49:27;19.85;;;9.02;;
51738;SDS011;37815;52.692;6.226;2022-11-20T22:54:28;17.30;;;8.50;;
51738;SDS011;37815;52.692;6.226;2022-11-20T22:59:29;17.73;;;8.35;;
51738;SDS011;37815;52.692;6.226;2022-11-20T23:04:29;18.42;;;8.93;;
51738;SDS011;37815;52.692;6.226;2022-11-20T23:09:30;18.52;;;8.85;;
51738;SDS011;37815;52.692;6.226;2022-11-20T23:14:31;21.55;;;8.77;;
51738;SDS011;37815;52.692;6.226;2022-11-20T23:19:31;19.00;;;9.00;;
51738;SDS011;37815;52.692;6.226;2022-11-20T23:24:32;19.85;;;8.63;;
51738;SDS011;37815;52.692;6.226;2022-11-20T23:29:33;18.67;;;9.15;;
51738;SDS011;37815;52.692;6.226;2022-11-20T23:34:33;17.00;;;8.90;;
51738;SDS011;37815;52.692;6.226;2022-11-20T23:39:34;20.05;;;9.32;;
51738;SDS011;37815;52.692;6.226;2022-11-20T23:44:35;16.85;;;8.10;;
51738;SDS011;37815;52.692;6.226;2022-11-20T23:49:35;17.17;;;8.73;;
51738;SDS011;37815;52.692;6.226;2022-11-20T23:54:36;18.48;;;8.73;;
51738;SDS011;37815;52.692;6.226;2022-11-20T23:59:37;17.13;;;8.40;;
